This is the latest recevied weather packets stored in our database for station/object HS1AL-1. If no packets are shown the sender has not sent any weather packets the latest 10 day(s).
| Time | Temp. | Humidity | Pressure | Rain* | Wind** | Luminosity | Snow |
|---|---|---|---|---|---|---|---|
| 1777550442 | 36.67° C | 47% | 1006 hPa | - | - | 0 W/m² | - |
| 1777549512 | 38.89° C | 40% | 1006 hPa | - | - | 0 W/m² | - |
| 1777548584 | 39.44° C | 36% | 1006 hPa | - | - | 0 W/m² | - |
| 1777547655 | 40.56° C | 31% | 1006 hPa | - | - | 0 W/m² | - |
| 1777546724 | 41.11° C | 31% | 1005 hPa | - | - | 0 W/m² | - |
| 1777545793 | 41.11° C | 31% | 1004 hPa | - | - | 0 W/m² | - |
| 1777544864 | 41.11° C | 31% | 1004 hPa | - | - | 0 W/m² | - |
| 1777543928 | 41.11° C | 31% | 1004 hPa | - | - | 0 W/m² | - |
| 1777542995 | 41.11° C | 31% | 1004 hPa | - | - | 0 W/m² | - |
| 1777542067 | 41.11° C | 30% | 1004 hPa | - | - | 0 W/m² | - |
| 1777541140 | 40° C | 31% | 1004 hPa | - | - | 0 W/m² | - |
| 1777540211 | 41.67° C | 33% | 1004 hPa | - | - | 0 W/m² | - |
| 1777539283 | 41.67° C | 34% | 1004 hPa | - | - | 0 W/m² | - |
| 1777538351 | 40.56° C | 35% | 1004 hPa | - | - | 0 W/m² | - |
| 1777537421 | 41.67° C | 34% | 1004 hPa | - | - | 0 W/m² | - |
| 1777536492 | 41.67° C | 34% | 1004 hPa | - | - | 0 W/m² | - |
| 1777535561 | 41.67° C | 35% | 1005 hPa | - | - | 0 W/m² | - |
| 1777534633 | 41.11° C | 36% | 1005 hPa | - | - | 0 W/m² | - |
| 1777532430 | 41.11° C | 36% | 1006 hPa | - | - | 0 W/m² | - |
| 1777531499 | 40.56° C | 37% | 1006 hPa | - | - | 0 W/m² | - |
| 1777530567 | 40.56° C | 37% | 1006 hPa | - | - | 0 W/m² | - |
| 1777529642 | 40.56° C | 37% | 1007 hPa | - | - | 0 W/m² | - |
| 1777528710 | 40.56° C | 37% | 1007 hPa | - | - | 0 W/m² | - |
| 1777527777 | 40° C | 37% | 1008 hPa | - | - | 0 W/m² | - |
| 1777526852 | 40° C | 38% | 1008 hPa | - | - | 0 W/m² | - |
* Rain since midnight (hover to see other rain measurements)
** Current wind speed in m/s (hover to see current wind gust speed)